createdAt,value
2019-05-23T00:01:27.210Z,101106.56
2019-05-23T00:03:59.098Z,101111.14
2019-05-23T00:06:29.822Z,101106.91
2019-05-23T00:09:00.872Z,101104.42
2019-05-23T00:11:32.309Z,101111.75
2019-05-23T00:14:08.596Z,101111.10
2019-05-23T00:16:38.914Z,101107.16
2019-05-23T00:19:08.965Z,101114.77
2019-05-23T00:21:39.153Z,101115.53
2019-05-23T00:24:10.792Z,101109.23
2019-05-23T00:26:41.379Z,101109.16
2019-05-23T00:29:12.228Z,101108.98
2019-05-23T00:31:45.081Z,101107.98
2019-05-23T00:34:15.277Z,101112.67
2019-05-23T00:36:46.141Z,101109.83
2019-05-23T00:39:16.781Z,101101.73
2019-05-23T00:41:46.911Z,101116.42
2019-05-23T00:44:17.438Z,101113.88
2019-05-23T00:46:47.495Z,101108.58
2019-05-23T00:49:18.409Z,101116.01
2019-05-23T00:51:48.445Z,101114.86
2019-05-23T00:54:19.584Z,101107.91
2019-05-23T00:56:50.259Z,101104.64
2019-05-23T00:59:26.901Z,101104.98
2019-05-23T01:01:52.500Z,101104.19
2019-05-23T01:04:22.636Z,101102.11
2019-05-23T01:06:53.912Z,101109.67
2019-05-23T01:09:25.651Z,101108.28
2019-05-23T01:11:55.517Z,101104.56
2019-05-23T01:14:25.796Z,101100.35
2019-05-23T01:16:56.010Z,101106.89
2019-05-23T01:19:26.212Z,101101.36
2019-05-23T01:21:58.207Z,101092.64
2019-05-23T01:24:36.207Z,101098.28
2019-05-23T01:27:07.125Z,101100.81
2019-05-23T01:29:42.381Z,101096.41
2019-05-23T01:32:14.585Z,101099.73
2019-05-23T01:34:46.569Z,101098.20
2019-05-23T01:37:19.190Z,101103.50
2019-05-23T01:39:49.523Z,101095.44
2019-05-23T01:42:20.462Z,101101.63
2019-05-23T01:44:52.004Z,101095.81
2019-05-23T01:47:23.436Z,101089.92
2019-05-23T01:49:54.631Z,101093.05
2019-05-23T01:52:25.410Z,101088.98
2019-05-23T01:54:55.225Z,101087.29
2019-05-23T01:57:25.192Z,101084.80
2019-05-23T02:00:09.111Z,101088.41
2019-05-23T02:02:28.642Z,101084.34
2019-05-23T02:04:59.286Z,101082.84
2019-05-23T02:07:30.195Z,101089.95
2019-05-23T02:10:00.373Z,101083.61
2019-05-23T02:12:30.794Z,101086.20
2019-05-23T02:15:03.138Z,101081.61
2019-05-23T02:17:33.598Z,101087.86
2019-05-23T02:20:04.443Z,101078.71
2019-05-23T02:22:34.340Z,101072.41
2019-05-23T02:25:07.892Z,101070.97
2019-05-23T02:27:38.356Z,101064.91
2019-05-23T02:30:30.072Z,101067.09
2019-05-23T02:32:41.843Z,101061.52
2019-05-23T02:35:13.454Z,101058.29
2019-05-23T02:37:44.901Z,101063.42
2019-05-23T02:40:25.379Z,101053.56
2019-05-23T02:42:59.584Z,101056.93
2019-05-23T02:45:49.154Z,101052.94
2019-05-23T02:48:35.947Z,101052.37
2019-05-23T02:51:08.921Z,101046.58
2019-05-23T02:53:40.944Z,101042.02
2019-05-23T02:56:14.662Z,101042.78
2019-05-23T02:58:47.782Z,101041.58
2019-05-23T03:01:31.301Z,101050.47
2019-05-23T03:04:04.769Z,101045.77
2019-05-23T03:06:37.088Z,101045.49
2019-05-23T03:09:08.865Z,101053.86
2019-05-23T03:11:43.564Z,101046.42
2019-05-23T03:14:16.613Z,101047.56
2019-05-23T03:16:48.706Z,101049.19
2019-05-23T03:19:27.259Z,101044.47
2019-05-23T03:22:01.170Z,101040.41
2019-05-23T03:24:33.299Z,101044.24
2019-05-23T03:27:05.276Z,101042.20
2019-05-23T03:29:35.918Z,101038.59
2019-05-23T03:32:13.094Z,101036.73
2019-05-23T03:34:47.402Z,101037.09
2019-05-23T03:37:17.204Z,101035.30
2019-05-23T03:39:47.384Z,101033.64
2019-05-23T03:42:17.535Z,101039.06
2019-05-23T03:44:48.244Z,101031.57
2019-05-23T03:47:19.836Z,101035.58
2019-05-23T03:49:50.700Z,101035.17
2019-05-23T03:52:21.706Z,101032.98
2019-05-23T03:54:52.557Z,101034.13
2019-05-23T03:57:25.849Z,101041.80
2019-05-23T03:59:56.476Z,101040.20
2019-05-23T04:02:26.754Z,101032.70
2019-05-23T04:04:58.653Z,101035.96
2019-05-23T04:07:30.248Z,101036.40
2019-05-23T04:10:00.249Z,101035.98
2019-05-23T04:12:30.370Z,101029.84
2019-05-23T04:15:00.155Z,101032.38
2019-05-23T04:17:30.017Z,101029.66
2019-05-23T04:20:00.508Z,101034.55
2019-05-23T04:22:30.550Z,101032.42
2019-05-23T04:25:02.165Z,101030.92
2019-05-23T04:27:32.337Z,101026.27
2019-05-23T04:30:02.428Z,101028.80
2019-05-23T04:32:32.488Z,101032.84
2019-05-23T04:35:02.710Z,101021.27
2019-05-23T04:37:32.858Z,101028.98
2019-05-23T04:40:03.283Z,101027.05
2019-05-23T04:42:33.371Z,101024.50
2019-05-23T04:45:03.633Z,101024.02
2019-05-23T04:47:33.409Z,101030.64
2019-05-23T04:50:06.501Z,101029.77
2019-05-23T04:52:37.255Z,101032.28
2019-05-23T04:55:08.573Z,101033.15
2019-05-23T04:57:38.368Z,101032.91
2019-05-23T05:00:11.006Z,101027.80
2019-05-23T05:02:41.494Z,101028.57
2019-05-23T05:05:12.209Z,101030.38
2019-05-23T05:07:42.039Z,101028.22
2019-05-23T05:10:14.432Z,101025.81
2019-05-23T05:12:44.908Z,101025.32
2019-05-23T05:15:15.242Z,101027.03
2019-05-23T05:17:46.054Z,101019.87
2019-05-23T05:20:16.692Z,101025.47
2019-05-23T05:22:47.093Z,101015.84
2019-05-23T05:25:17.345Z,101020.48
2019-05-23T05:27:47.322Z,101027.80
2019-05-23T05:30:17.470Z,101023.20
2019-05-23T05:32:47.735Z,101031.52
2019-05-23T05:35:18.028Z,101030.80
2019-05-23T05:37:47.996Z,101030.02
2019-05-23T05:40:18.491Z,101031.55
2019-05-23T05:42:48.323Z,101034.63
2019-05-23T05:45:20.338Z,101035.58
2019-05-23T05:47:50.418Z,101032.61
2019-05-23T05:50:20.961Z,101034.75
2019-05-23T05:52:50.942Z,101033.98
2019-05-23T05:55:21.190Z,101031.00
2019-05-23T05:57:51.085Z,101031.36
2019-05-23T06:00:29.132Z,101035.70
2019-05-23T06:03:05.310Z,101032.39
2019-05-23T06:05:37.287Z,101036.73
2019-05-23T06:08:08.821Z,101037.62
2019-05-23T06:10:38.967Z,101042.30
2019-05-23T06:13:08.948Z,101042.81
2019-05-23T06:15:39.002Z,101045.72
2019-05-23T06:18:09.175Z,101047.70
2019-05-23T06:20:42.998Z,101048.62
2019-05-23T06:23:13.384Z,101052.11
2019-05-23T06:25:43.556Z,101054.00
2019-05-23T06:28:15.364Z,101054.09
2019-05-23T06:30:45.931Z,101056.56
2019-05-23T06:33:23.511Z,101051.31
2019-05-23T06:35:48.972Z,101053.52
2019-05-23T06:38:18.881Z,101056.20
2019-05-23T06:40:48.882Z,101059.80
2019-05-23T06:43:18.878Z,101062.12
2019-05-23T06:45:48.790Z,101055.75
2019-05-23T06:48:21.099Z,101053.16
2019-05-23T06:50:51.349Z,101052.67
2019-05-23T06:53:21.315Z,101054.05
2019-05-23T06:55:51.283Z,101052.56
2019-05-23T06:58:21.997Z,101058.69
2019-05-23T07:00:52.409Z,101054.11
2019-05-23T07:03:39.891Z,101060.15
2019-05-23T07:05:54.102Z,101063.63
2019-05-23T07:08:27.182Z,101058.31
2019-05-23T07:10:57.171Z,101055.61
2019-05-23T07:13:29.599Z,101049.25
2019-05-23T07:15:59.515Z,101056.06
2019-05-23T07:18:29.529Z,101052.64
2019-05-23T07:20:59.456Z,101057.89
2019-05-23T07:23:29.656Z,101051.00
2019-05-23T07:25:59.862Z,101053.48
2019-05-23T07:28:30.139Z,101054.52
2019-05-23T07:31:00.506Z,101055.81
2019-05-23T07:33:30.421Z,101048.72
2019-05-23T07:36:00.336Z,101052.20
2019-05-23T07:38:30.231Z,101056.25
2019-05-23T07:41:00.611Z,101057.71
2019-05-23T07:43:30.488Z,101057.42
2019-05-23T07:46:01.375Z,101055.13
2019-05-23T07:48:31.246Z,101059.59
2019-05-23T07:51:01.333Z,101059.30
2019-05-23T07:53:50.800Z,101055.33
2019-05-23T07:56:22.625Z,101053.90
2019-05-23T07:58:52.485Z,101048.57
2019-05-23T08:01:24.171Z,101053.53
2019-05-23T08:03:55.884Z,101045.41
2019-05-23T08:06:26.107Z,101050.87
2019-05-23T08:08:56.069Z,101050.12
2019-05-23T08:11:26.659Z,101043.41
2019-05-23T08:13:56.652Z,101039.94
2019-05-23T08:16:26.954Z,101049.91
2019-05-23T08:18:56.847Z,101044.89
2019-05-23T08:21:26.776Z,101052.05
2019-05-23T08:23:56.557Z,101045.98
2019-05-23T08:26:27.408Z,101048.11
2019-05-23T08:29:24.221Z,101041.98
2019-05-23T08:31:29.559Z,101055.61
2019-05-23T08:33:59.966Z,101041.09
2019-05-23T08:36:30.304Z,101043.39
2019-05-23T08:39:01.559Z,101039.98
2019-05-23T08:41:32.233Z,101043.87
2019-05-23T08:44:02.321Z,101039.19
2019-05-23T08:46:32.121Z,101041.86
2019-05-23T08:49:01.914Z,101041.52
2019-05-23T08:51:31.705Z,101043.42
2019-05-23T08:54:01.973Z,101038.45
2019-05-23T08:56:31.780Z,101034.52
2019-05-23T08:59:01.580Z,101029.29
2019-05-23T09:01:31.376Z,101030.52
2019-05-23T09:04:01.811Z,101032.38
2019-05-23T09:06:33.432Z,101027.58
2019-05-23T09:09:27.739Z,101031.41
2019-05-23T09:11:37.881Z,101026.98
2019-05-23T09:14:07.841Z,101030.80
2019-05-23T09:16:38.321Z,101020.34
2019-05-23T09:19:08.299Z,101028.62
2019-05-23T09:21:38.443Z,101027.41
2019-05-23T09:24:09.727Z,101019.84
2019-05-23T09:26:39.525Z,101021.84
2019-05-23T09:29:09.711Z,101023.45
2019-05-23T09:31:40.024Z,101021.22
2019-05-23T09:34:09.899Z,101015.89
2019-05-23T09:36:39.769Z,101020.61
2019-05-23T09:39:11.651Z,101017.48
2019-05-23T09:41:41.453Z,101014.77
2019-05-23T09:44:11.236Z,101022.41
2019-05-23T09:46:41.050Z,101013.85
2019-05-23T09:49:11.597Z,101007.84
2019-05-23T09:51:41.484Z,101011.40
2019-05-23T09:54:11.405Z,101015.50
2019-05-23T09:56:41.383Z,101010.65
2019-05-23T09:59:11.259Z,101005.16
2019-05-23T10:01:41.066Z,100998.93
2019-05-23T10:04:10.892Z,101001.99
2019-05-23T10:06:40.911Z,100997.98
2019-05-23T10:09:10.743Z,100996.37
2019-05-23T10:11:40.529Z,100998.93
2019-05-23T10:14:12.036Z,100985.22
2019-05-23T10:16:42.022Z,100986.19
2019-05-23T10:19:11.823Z,100985.31
2019-05-23T10:21:41.650Z,100988.27
2019-05-23T10:24:11.713Z,100989.79
2019-05-23T10:26:41.565Z,100985.48
2019-05-23T10:29:11.358Z,100983.01
2019-05-23T10:31:41.154Z,100972.34
2019-05-23T10:34:11.026Z,100973.61
2019-05-23T10:36:40.790Z,100972.12
2019-05-23T10:39:13.014Z,100973.45
2019-05-23T10:41:43.444Z,100965.75
2019-05-23T10:44:13.408Z,100964.72
2019-05-23T10:46:43.205Z,100968.42
2019-05-23T10:49:13.000Z,100965.61
2019-05-23T10:51:42.781Z,100954.30
2019-05-23T10:54:13.504Z,100954.83
2019-05-23T10:56:43.280Z,100948.44
2019-05-23T10:59:13.059Z,100944.02
2019-05-23T11:01:43.757Z,100945.53
2019-05-23T11:04:13.734Z,100948.55
2019-05-23T11:06:43.699Z,100949.01
2019-05-23T11:09:14.530Z,100941.67
2019-05-23T11:11:44.526Z,100937.84
2019-05-23T11:14:15.171Z,100927.12
2019-05-23T11:16:45.285Z,100929.14
2019-05-23T11:19:15.174Z,100921.20
2019-05-23T11:21:44.986Z,100926.58
2019-05-23T11:24:15.140Z,100921.14
2019-05-23T11:26:45.567Z,100923.22
2019-05-23T11:29:15.348Z,100921.61
2019-05-23T11:31:45.250Z,100917.38
2019-05-23T11:34:15.054Z,100925.57
2019-05-23T11:36:44.903Z,100919.73
2019-05-23T11:39:15.251Z,100923.99
2019-05-23T11:41:45.072Z,100912.89
2019-05-23T11:44:14.861Z,100918.91
2019-05-23T11:46:44.686Z,100905.05
2019-05-23T11:49:14.962Z,100912.08
2019-05-23T11:51:45.035Z,100909.62
2019-05-23T11:54:15.527Z,100913.96
2019-05-23T11:56:45.482Z,100904.33
2019-05-23T11:59:15.546Z,100908.23
2019-05-23T12:01:49.694Z,100908.75
2019-05-23T12:04:20.891Z,100904.98
2019-05-23T12:06:55.946Z,100891.34
2019-05-23T12:09:23.877Z,100894.77
2019-05-23T12:11:53.941Z,100888.72
2019-05-23T12:14:23.801Z,100881.11
2019-05-23T12:16:55.285Z,100884.36
2019-05-23T12:19:25.442Z,100893.81
2019-05-23T12:21:55.646Z,100894.08
2019-05-23T12:24:25.661Z,100893.28
2019-05-23T12:26:55.507Z,100881.53
2019-05-23T12:29:25.377Z,100882.55
2019-05-23T12:31:55.297Z,100880.78
2019-05-23T12:34:25.196Z,100885.01
2019-05-23T12:37:14.301Z,100883.22
2019-05-23T12:39:27.220Z,100878.77
2019-05-23T12:41:57.009Z,100877.35
2019-05-23T12:44:27.106Z,100863.63
2019-05-23T12:46:57.121Z,100866.86
2019-05-23T12:49:28.600Z,100863.04
2019-05-23T12:51:58.953Z,100861.24
2019-05-23T12:54:29.424Z,100856.19
2019-05-23T12:56:59.230Z,100864.23
2019-05-23T12:59:29.022Z,100858.80
2019-05-23T13:02:00.017Z,100855.97
2019-05-23T13:04:29.833Z,100854.59
2019-05-23T13:06:59.642Z,100850.95
2019-05-23T13:09:29.748Z,100855.22
2019-05-23T13:11:59.559Z,100857.46
2019-05-23T13:14:29.625Z,100853.23
2019-05-23T13:17:01.043Z,100850.76
2019-05-23T13:19:31.142Z,100840.28
2019-05-23T13:22:01.505Z,100840.30
2019-05-23T13:24:50.676Z,100832.42
2019-05-23T13:27:03.698Z,100833.67
2019-05-23T13:29:33.507Z,100833.47
2019-05-23T13:32:05.255Z,100831.62
2019-05-23T13:34:35.087Z,100828.64
2019-05-23T13:37:06.625Z,100820.97
2019-05-23T13:39:36.482Z,100829.84
2019-05-23T13:42:06.414Z,100832.86
2019-05-23T13:44:36.490Z,100819.95
2019-05-23T13:47:06.373Z,100823.19
2019-05-23T13:49:36.428Z,100820.56
2019-05-23T13:52:06.214Z,100820.16
2019-05-23T13:54:37.109Z,100825.56
2019-05-23T13:57:08.785Z,100819.16
2019-05-23T13:59:38.648Z,100815.94
2019-05-23T14:02:09.563Z,100813.08
2019-05-23T14:04:39.707Z,100811.69
2019-05-23T14:07:10.694Z,100816.73
2019-05-23T14:09:40.526Z,100805.46
2019-05-23T14:12:25.997Z,100804.84
2019-05-23T14:14:42.125Z,100806.24
2019-05-23T14:17:28.905Z,100802.16
2019-05-23T14:19:58.929Z,100804.55
2019-05-23T14:22:29.424Z,100805.95
2019-05-23T14:24:59.250Z,100796.13
2019-05-23T14:27:30.655Z,100791.50
2019-05-23T14:30:09.507Z,100793.47
2019-05-23T14:32:49.974Z,100790.62
2019-05-23T14:35:21.742Z,100796.63
2019-05-23T14:37:53.161Z,100787.95
2019-05-23T14:40:23.220Z,100791.36
2019-05-23T14:42:54.651Z,100790.55
2019-05-23T14:45:32.254Z,100783.70
2019-05-23T14:48:04.009Z,100785.09
2019-05-23T14:50:48.139Z,100789.11
2019-05-23T14:53:22.278Z,100784.06
2019-05-23T14:55:52.232Z,100788.20
2019-05-23T14:58:22.107Z,100782.17
2019-05-23T15:00:52.923Z,100787.62
2019-05-23T15:03:23.182Z,100781.76
2019-05-23T15:05:53.271Z,100778.45
2019-05-23T15:08:24.652Z,100772.42
2019-05-23T15:10:54.808Z,100777.88
2019-05-23T15:13:25.799Z,100775.08
2019-05-23T15:15:55.897Z,100774.31
2019-05-23T15:18:27.046Z,100768.47
2019-05-23T15:20:58.052Z,100766.67
2019-05-23T15:23:29.073Z,100754.96
2019-05-23T15:25:59.869Z,100759.77
2019-05-23T15:28:30.966Z,100750.38
2019-05-23T15:31:01.966Z,100754.81
2019-05-23T15:33:32.978Z,100758.01
2019-05-23T15:36:03.411Z,100758.05
2019-05-23T15:38:34.403Z,100757.23
2019-05-23T15:41:06.189Z,100759.23
2019-05-23T15:43:36.746Z,100753.83
2019-05-23T15:46:08.413Z,100753.91
2019-05-23T15:48:39.834Z,100753.16
2019-05-23T15:51:11.759Z,100749.95
2019-05-23T15:53:50.303Z,100754.16
2019-05-23T15:56:28.921Z,100753.94
2019-05-23T15:59:13.489Z,100748.45
2019-05-23T16:02:01.841Z,100752.19
2019-05-23T16:04:32.480Z,100739.09
2019-05-23T16:07:03.880Z,100743.25
2019-05-23T16:09:35.256Z,100745.91
2019-05-23T16:12:06.520Z,100743.31
2019-05-23T16:14:38.488Z,100749.17
2019-05-23T16:17:11.242Z,100749.20
2019-05-23T16:19:41.799Z,100741.73
2019-05-23T16:22:12.326Z,100739.27
2019-05-23T16:24:43.508Z,100744.47
2019-05-23T16:27:14.503Z,100730.47
2019-05-23T16:29:44.926Z,100729.63
2019-05-23T16:32:15.203Z,100733.84
2019-05-23T16:34:46.321Z,100727.80
2019-05-23T16:37:16.638Z,100736.02
2019-05-23T16:39:49.703Z,100734.42
2019-05-23T16:42:20.466Z,100731.19
2019-05-23T16:44:51.165Z,100733.06
2019-05-23T16:47:21.992Z,100730.70
2019-05-23T16:49:52.931Z,100733.75
2019-05-23T16:52:24.446Z,100730.55
2019-05-23T16:54:56.535Z,100726.08
2019-05-23T16:57:41.445Z,100733.95
2019-05-23T17:00:30.473Z,100733.89
2019-05-23T17:03:11.367Z,100736.30
2019-05-23T17:06:01.895Z,100733.33
2019-05-23T17:08:40.018Z,100735.97
2019-05-23T17:11:13.031Z,100733.23
2019-05-23T17:13:53.929Z,100734.67
2019-05-23T17:16:25.936Z,100730.93
2019-05-23T17:19:00.641Z,100725.13
2019-05-23T17:21:35.579Z,100728.94
2019-05-23T17:24:10.130Z,100726.45
2019-05-23T17:26:44.981Z,100722.19
2019-05-23T17:29:16.967Z,100713.91
2019-05-23T17:31:49.452Z,100712.07
2019-05-23T17:34:19.653Z,100713.48
2019-05-23T17:36:49.830Z,100708.59
2019-05-23T17:39:20.833Z,100710.70
2019-05-23T17:41:51.301Z,100703.02
2019-05-23T17:44:22.304Z,100703.78
2019-05-23T17:46:52.493Z,100700.34
2019-05-23T17:49:22.761Z,100700.58
2019-05-23T17:51:53.755Z,100700.73
2019-05-23T17:54:24.667Z,100690.38
2019-05-23T17:56:55.682Z,100692.03
2019-05-23T17:59:25.877Z,100698.38
2019-05-23T18:01:56.528Z,100699.17
2019-05-23T18:04:26.636Z,100693.66
2019-05-23T18:06:57.693Z,100690.38
2019-05-23T18:09:28.334Z,100695.06
2019-05-23T18:11:59.685Z,100688.29
2019-05-23T18:14:30.866Z,100704.38
2019-05-23T18:17:01.196Z,100704.48
2019-05-23T18:19:31.852Z,100707.41
2019-05-23T18:22:02.775Z,100703.38
2019-05-23T18:24:33.472Z,100709.07
2019-05-23T18:27:06.171Z,100707.90
2019-05-23T18:29:36.499Z,100709.94
2019-05-23T18:32:09.395Z,100713.17
2019-05-23T18:34:40.929Z,100709.77
2019-05-23T18:37:10.903Z,100715.37
2019-05-23T18:39:41.008Z,100706.31
2019-05-23T18:42:11.764Z,100707.94
2019-05-23T18:44:43.134Z,100709.72
2019-05-23T18:47:15.967Z,100717.95
2019-05-23T18:49:47.239Z,100715.70
2019-05-23T18:52:17.849Z,100721.15
2019-05-23T18:54:47.849Z,100727.34
2019-05-23T18:57:18.341Z,100723.06
2019-05-23T18:59:48.779Z,100727.25
2019-05-23T19:02:19.109Z,100730.03
2019-05-23T19:04:51.293Z,100722.37
2019-05-23T19:07:21.548Z,100735.00
2019-05-23T19:09:51.441Z,100735.74
2019-05-23T19:12:22.760Z,100738.06
2019-05-23T19:14:53.850Z,100741.63
2019-05-23T19:17:24.688Z,100739.63
2019-05-23T19:19:55.000Z,100742.39
2019-05-23T19:22:25.788Z,100736.89
2019-05-23T19:24:56.266Z,100748.14
2019-05-23T19:27:26.356Z,100740.86
2019-05-23T19:29:58.045Z,100744.23
2019-05-23T19:32:29.842Z,100745.09
2019-05-23T19:35:00.033Z,100748.95
2019-05-23T19:37:31.062Z,100754.41
2019-05-23T19:40:02.143Z,100755.14
2019-05-23T19:42:33.192Z,100759.30
2019-05-23T19:45:06.645Z,100763.86
2019-05-23T19:47:37.821Z,100757.38
2019-05-23T19:50:09.506Z,100762.71
2019-05-23T19:52:40.581Z,100761.12
2019-05-23T19:55:10.935Z,100759.05
2019-05-23T19:57:42.481Z,100761.60
2019-05-23T20:00:18.452Z,100769.22
2019-05-23T20:02:53.827Z,100764.25
2019-05-23T20:05:41.251Z,100770.33
2019-05-23T20:08:11.729Z,100771.27
2019-05-23T20:10:42.119Z,100775.09
2019-05-23T20:13:12.541Z,100775.04
2019-05-23T20:15:45.654Z,100769.66
2019-05-23T20:18:16.427Z,100786.84
2019-05-23T20:20:47.759Z,100783.17
2019-05-23T20:23:18.183Z,100779.36
2019-05-23T20:25:48.358Z,100779.98
2019-05-23T20:28:19.331Z,100773.63
2019-05-23T20:30:52.600Z,100781.25
2019-05-23T20:33:24.064Z,100777.16
2019-05-23T20:35:54.157Z,100779.31
2019-05-23T20:38:25.056Z,100776.84
2019-05-23T20:40:55.535Z,100772.73
2019-05-23T20:43:25.924Z,100774.17
2019-05-23T20:45:56.938Z,100777.84
2019-05-23T20:48:27.902Z,100778.47
2019-05-23T20:50:58.806Z,100779.23
2019-05-23T20:53:28.824Z,100779.99
2019-05-23T20:55:59.157Z,100765.55
2019-05-23T20:58:30.465Z,100776.83
2019-05-23T21:01:05.519Z,100773.88
2019-05-23T21:03:36.476Z,100776.09
2019-05-23T21:06:07.519Z,100774.74
2019-05-23T21:08:37.539Z,100774.78
2019-05-23T21:11:07.922Z,100771.56
2019-05-23T21:13:38.106Z,100771.44
2019-05-23T21:16:07.774Z,100771.73
2019-05-23T21:18:38.767Z,100770.50
2019-05-23T21:21:09.066Z,100768.08
2019-05-23T21:23:39.141Z,100770.72
2019-05-23T21:26:09.169Z,100767.55
2019-05-23T21:28:39.593Z,100773.30
2019-05-23T21:31:11.272Z,100762.03
2019-05-23T21:33:41.266Z,100763.42
2019-05-23T21:36:11.461Z,100758.38
2019-05-23T21:38:42.546Z,100761.98
2019-05-23T21:41:12.549Z,100758.73
2019-05-23T21:43:43.310Z,100763.01
2019-05-23T21:46:13.729Z,100754.05
2019-05-23T21:48:44.927Z,100757.12
2019-05-23T21:51:15.127Z,100755.79
2019-05-23T21:53:45.505Z,100758.11
2019-05-23T21:56:15.608Z,100757.20
2019-05-23T21:58:45.676Z,100759.82
2019-05-23T22:01:20.732Z,100756.63
2019-05-23T22:03:53.016Z,100761.72
2019-05-23T22:06:38.108Z,100765.81
2019-05-23T22:09:12.041Z,100761.66
2019-05-23T22:11:42.104Z,100753.33
2019-05-23T22:14:12.298Z,100753.06
2019-05-23T22:16:42.430Z,100753.35
2019-05-23T22:19:14.272Z,100751.29
2019-05-23T22:21:44.438Z,100748.34
2019-05-23T22:24:14.818Z,100744.35
2019-05-23T22:26:44.983Z,100749.78
2019-05-23T22:29:15.582Z,100743.56
2019-05-23T22:31:45.468Z,100743.20
2019-05-23T22:34:19.769Z,100747.12
2019-05-23T22:36:49.746Z,100748.46
2019-05-23T22:39:19.819Z,100744.94
2019-05-23T22:41:49.828Z,100746.92
2019-05-23T22:44:19.628Z,100749.13
2019-05-23T22:46:49.770Z,100747.80
2019-05-23T22:49:19.669Z,100745.89
2019-05-23T22:51:49.634Z,100740.58
2019-05-23T22:54:19.433Z,100743.13
2019-05-23T22:56:49.324Z,100741.73
2019-05-23T22:59:19.322Z,100745.23
2019-05-23T23:01:49.302Z,100742.39
2019-05-23T23:04:19.459Z,100743.61
2019-05-23T23:06:49.529Z,100740.09
2019-05-23T23:09:20.256Z,100743.86
2019-05-23T23:11:50.252Z,100738.65
2019-05-23T23:14:20.155Z,100736.95
2019-05-23T23:16:50.887Z,100732.63
2019-05-23T23:19:20.797Z,100735.64
2019-05-23T23:21:50.536Z,100736.17
2019-05-23T23:24:20.950Z,100739.53
2019-05-23T23:26:50.869Z,100733.77
2019-05-23T23:29:20.794Z,100726.03
2019-05-23T23:31:50.621Z,100723.22
2019-05-23T23:34:20.773Z,100727.23
2019-05-23T23:36:50.811Z,100722.69
2019-05-23T23:39:21.689Z,100724.70
2019-05-23T23:41:51.487Z,100727.27
2019-05-23T23:44:22.477Z,100725.45
2019-05-23T23:47:10.405Z,100717.17
2019-05-23T23:49:58.368Z,100720.15
2019-05-23T23:52:48.320Z,100716.28
2019-05-23T23:55:35.848Z,100711.84
2019-05-23T23:58:04.919Z,100717.79
